createdAt,value
2023-11-17T00:00:32.804Z,7.04
2023-11-17T00:03:00.205Z,7.03
2023-11-17T00:05:27.483Z,7.11
2023-11-17T00:07:55.461Z,7.10
2023-11-17T00:10:22.749Z,7.14
2023-11-17T00:12:50.191Z,7.24
2023-11-17T00:15:18.267Z,7.20
2023-11-17T00:17:45.435Z,7.18
2023-11-17T00:20:12.918Z,7.17
2023-11-17T00:22:40.085Z,7.12
2023-11-17T00:25:10.232Z,7.03
2023-11-17T00:27:39.234Z,6.97
2023-11-17T00:30:08.816Z,6.95
2023-11-17T00:32:37.025Z,6.92
2023-11-17T00:35:05.527Z,6.89
2023-11-17T00:37:33.310Z,6.90
2023-11-17T00:40:01.352Z,6.94
2023-11-17T00:42:28.554Z,6.87
2023-11-17T00:44:55.620Z,6.79
2023-11-17T00:47:22.788Z,6.86
2023-11-17T00:49:50.741Z,6.85
2023-11-17T00:52:18.093Z,6.84
2023-11-17T00:54:48.430Z,6.77
2023-11-17T00:57:17.703Z,6.79
2023-11-17T00:59:45.397Z,6.82
2023-11-17T01:02:12.711Z,6.83
2023-11-17T01:04:39.894Z,6.84
2023-11-17T01:07:07.119Z,6.74
2023-11-17T01:09:34.347Z,6.69
2023-11-17T01:12:01.430Z,6.64
2023-11-17T01:14:28.940Z,6.68
2023-11-17T01:16:56.059Z,6.68
2023-11-17T01:19:23.763Z,6.71
2023-11-17T01:21:50.908Z,6.70
2023-11-17T01:24:18.011Z,6.62
2023-11-17T01:26:45.035Z,6.67
2023-11-17T01:29:12.443Z,6.70
2023-11-17T01:31:39.505Z,6.73
2023-11-17T01:34:07.484Z,6.82
2023-11-17T01:36:34.662Z,6.86
2023-11-17T01:39:01.704Z,6.90
2023-11-17T01:41:29.229Z,6.89
2023-11-17T01:43:56.652Z,6.84
2023-11-17T01:46:23.836Z,6.83
2023-11-17T01:48:51.006Z,6.81
2023-11-17T01:51:18.095Z,6.69
2023-11-17T01:53:46.301Z,6.75
2023-11-17T01:56:13.477Z,6.70
2023-11-17T01:58:40.800Z,6.61
2023-11-17T02:01:09.845Z,6.66
2023-11-17T02:03:40.854Z,6.77
2023-11-17T02:06:31.277Z,6.64
2023-11-17T02:09:17.849Z,6.65
2023-11-17T02:11:51.386Z,6.65
2023-11-17T02:14:22.899Z,6.64
2023-11-17T02:16:52.047Z,6.63
2023-11-17T02:19:28.288Z,6.57
2023-11-17T02:22:03.638Z,6.63
2023-11-17T02:24:41.343Z,6.66
2023-11-17T02:27:20.342Z,6.67
2023-11-17T02:29:48.946Z,6.59
2023-11-17T02:32:17.683Z,6.69
2023-11-17T02:34:45.985Z,6.68
2023-11-17T02:37:13.296Z,6.62
2023-11-17T02:39:41.216Z,6.60
2023-11-17T02:42:14.948Z,6.66
2023-11-17T02:44:42.261Z,6.70
2023-11-17T02:47:10.476Z,6.74
2023-11-17T02:49:43.712Z,6.74
2023-11-17T02:52:27.440Z,6.78
2023-11-17T02:54:55.610Z,6.74
2023-11-17T02:57:26.131Z,6.70
2023-11-17T02:59:54.790Z,6.70
2023-11-17T03:02:21.904Z,6.70
2023-11-17T03:04:55.439Z,6.66
2023-11-17T03:07:23.014Z,6.57
2023-11-17T03:09:53.374Z,6.57
2023-11-17T03:12:21.290Z,6.60
2023-11-17T03:14:48.345Z,6.51
2023-11-17T03:17:15.747Z,6.55
2023-11-17T03:19:42.829Z,6.54
2023-11-17T03:22:14.493Z,6.55
2023-11-17T03:24:44.755Z,6.58
2023-11-17T03:27:12.849Z,6.57
2023-11-17T03:29:40.076Z,6.60
2023-11-17T03:32:08.862Z,6.61
2023-11-17T03:34:36.231Z,6.65
2023-11-17T03:37:05.300Z,6.59
2023-11-17T03:39:43.408Z,6.62
2023-11-17T03:42:12.552Z,6.62
2023-11-17T03:44:39.865Z,6.64
2023-11-17T03:47:08.093Z,6.67
2023-11-17T03:49:35.461Z,6.51
2023-11-17T03:52:06.720Z,6.53
2023-11-17T03:54:34.162Z,6.50
2023-11-17T03:57:04.628Z,6.49
2023-11-17T03:59:31.989Z,6.48
2023-11-17T04:02:00.209Z,6.49
2023-11-17T04:04:27.689Z,6.48
2023-11-17T04:06:58.605Z,6.50
2023-11-17T04:09:26.635Z,6.49
2023-11-17T04:11:54.711Z,6.43
2023-11-17T04:14:23.568Z,6.47
2023-11-17T04:16:51.524Z,6.48
2023-11-17T04:19:22.533Z,6.44
2023-11-17T04:21:50.693Z,6.32
2023-11-17T04:24:18.616Z,6.39
2023-11-17T04:26:47.311Z,6.32
2023-11-17T04:29:14.746Z,6.32
2023-11-17T04:31:43.054Z,6.37
2023-11-17T04:34:12.757Z,6.46
2023-11-17T04:36:40.220Z,6.49
2023-11-17T04:39:18.401Z,6.49
2023-11-17T04:41:46.563Z,6.46
2023-11-17T04:44:14.257Z,6.43
2023-11-17T04:46:41.609Z,6.44
2023-11-17T04:49:08.766Z,6.47
2023-11-17T04:51:36.480Z,6.46
2023-11-17T04:54:03.559Z,6.43
2023-11-17T04:56:31.476Z,6.39
2023-11-17T04:58:58.596Z,6.51
2023-11-17T05:01:25.852Z,6.48
2023-11-17T05:03:53.104Z,6.55
2023-11-17T05:06:24.467Z,6.56
2023-11-17T05:08:51.877Z,6.57
2023-11-17T05:11:19.051Z,6.55
2023-11-17T05:13:46.236Z,6.60
2023-11-17T05:16:15.319Z,6.60
2023-11-17T05:18:43.981Z,6.57
2023-11-17T05:21:14.010Z,6.58
2023-11-17T05:23:41.565Z,6.54
2023-11-17T05:26:09.958Z,6.54
2023-11-17T05:28:37.368Z,6.55
2023-11-17T05:31:04.756Z,6.59
2023-11-17T05:33:31.969Z,6.55
2023-11-17T05:35:59.757Z,6.52
2023-11-17T05:38:27.573Z,6.59
2023-11-17T05:40:54.722Z,6.58
2023-11-17T05:43:21.903Z,6.60
2023-11-17T05:45:51.504Z,6.57
2023-11-17T05:48:18.770Z,6.57
2023-11-17T05:50:45.959Z,6.52
2023-11-17T05:53:14.874Z,6.57
2023-11-17T05:55:45.530Z,6.50
2023-11-17T05:58:13.762Z,6.58
2023-11-17T06:00:43.422Z,6.56
2023-11-17T06:03:10.561Z,6.55
2023-11-17T06:05:37.768Z,6.55
2023-11-17T06:08:05.872Z,6.54
2023-11-17T06:10:33.234Z,6.48
2023-11-17T06:13:01.298Z,6.48
2023-11-17T06:15:29.399Z,6.43
2023-11-17T06:17:57.400Z,6.46
2023-11-17T06:20:26.736Z,6.45
2023-11-17T06:22:53.855Z,6.42
2023-11-17T06:25:21.027Z,6.44
2023-11-17T06:27:50.887Z,6.45
2023-11-17T06:30:18.144Z,6.42
2023-11-17T06:32:45.237Z,6.42
2023-11-17T06:35:12.959Z,6.35
2023-11-17T06:37:40.084Z,6.32
2023-11-17T06:40:11.668Z,6.28
2023-11-17T06:42:41.023Z,6.25
2023-11-17T06:45:08.508Z,6.23
2023-11-17T06:47:36.069Z,6.22
2023-11-17T06:50:05.793Z,6.22
2023-11-17T06:52:32.973Z,6.21
2023-11-17T06:55:00.648Z,6.23
2023-11-17T06:57:29.175Z,6.26
2023-11-17T06:59:56.270Z,6.24
2023-11-17T07:02:23.456Z,6.28
2023-11-17T07:04:50.568Z,6.30
2023-11-17T07:07:17.678Z,6.23
2023-11-17T07:09:44.830Z,6.24
2023-11-17T07:12:11.946Z,6.25
2023-11-17T07:14:39.757Z,6.31
2023-11-17T07:17:07.081Z,6.34
2023-11-17T07:19:35.465Z,6.32
2023-11-17T07:22:03.060Z,6.37
2023-11-17T07:24:30.647Z,6.38
2023-11-17T07:27:00.061Z,6.41
2023-11-17T07:29:28.407Z,6.49
2023-11-17T07:31:55.686Z,6.51
2023-11-17T07:34:23.070Z,6.54
2023-11-17T07:36:50.329Z,6.62
2023-11-17T07:39:22.767Z,6.62
2023-11-17T07:41:50.244Z,6.54
2023-11-17T07:44:17.582Z,6.67
2023-11-17T07:46:46.710Z,6.66
2023-11-17T07:49:15.156Z,6.68
2023-11-17T07:51:43.912Z,6.81
2023-11-17T07:54:13.115Z,6.74
2023-11-17T07:56:41.656Z,6.75
2023-11-17T07:59:12.074Z,6.80
2023-11-17T08:01:40.717Z,6.89
2023-11-17T08:04:11.913Z,6.88
2023-11-17T08:06:40.206Z,6.90
2023-11-17T08:09:11.060Z,6.99
2023-11-17T08:11:39.364Z,7.00
2023-11-17T08:14:06.674Z,7.04
2023-11-17T08:16:34.879Z,7.07
2023-11-17T08:19:10.695Z,7.12
2023-11-17T08:21:45.813Z,7.14
2023-11-17T08:24:13.763Z,7.16
2023-11-17T08:26:41.252Z,7.22
2023-11-17T08:29:08.990Z,7.26
2023-11-17T08:31:36.175Z,7.33
2023-11-17T08:34:03.299Z,7.32
2023-11-17T08:36:30.662Z,7.37
2023-11-17T08:38:58.636Z,7.42
2023-11-17T08:41:25.826Z,7.42
2023-11-17T08:43:59.174Z,7.39
2023-11-17T08:46:29.898Z,7.43
2023-11-17T08:48:57.697Z,7.32
2023-11-17T08:51:25.007Z,7.31
2023-11-17T08:53:52.160Z,7.28
2023-11-17T08:56:19.424Z,7.27
2023-11-17T08:58:46.511Z,7.30
2023-11-17T09:01:14.278Z,7.26
2023-11-17T09:03:43.981Z,7.34
2023-11-17T09:06:12.810Z,7.34
2023-11-17T09:08:39.913Z,7.38
2023-11-17T09:11:09.335Z,7.39
2023-11-17T09:13:38.040Z,7.38
2023-11-17T09:16:08.706Z,7.43
2023-11-17T09:18:36.974Z,7.51
2023-11-17T09:21:07.202Z,7.60
2023-11-17T09:23:35.722Z,7.66
2023-11-17T09:26:04.425Z,7.81
2023-11-17T09:28:31.744Z,7.95
2023-11-17T09:31:00.013Z,8.00
2023-11-17T09:33:29.740Z,8.19
2023-11-17T09:36:01.957Z,8.40
2023-11-17T09:38:36.855Z,8.48
2023-11-17T09:41:05.913Z,8.57
2023-11-17T09:43:39.974Z,8.69
2023-11-17T09:46:11.706Z,8.79
2023-11-17T09:48:40.819Z,8.88
2023-11-17T09:51:09.178Z,8.85
2023-11-17T09:53:39.267Z,8.96
2023-11-17T09:56:10.199Z,8.98
2023-11-17T09:58:39.220Z,8.98
2023-11-17T10:01:11.907Z,8.90
2023-11-17T10:03:40.323Z,8.90
2023-11-17T10:06:09.326Z,8.84
2023-11-17T10:08:40.754Z,9.03
2023-11-17T10:11:11.257Z,9.05
2023-11-17T10:13:39.845Z,8.87
2023-11-17T10:16:09.378Z,9.05
2023-11-17T10:18:38.476Z,9.05
2023-11-17T10:21:06.124Z,9.16
2023-11-17T10:23:34.350Z,9.23
2023-11-17T10:26:02.251Z,9.21
2023-11-17T10:28:30.089Z,9.21
2023-11-17T10:31:01.970Z,9.43
2023-11-17T10:33:31.283Z,9.50
2023-11-17T10:36:05.754Z,9.57
2023-11-17T10:38:36.602Z,9.61
2023-11-17T10:41:36.595Z,9.69
2023-11-17T10:44:04.945Z,9.69
2023-11-17T10:46:41.753Z,9.73
2023-11-17T10:49:17.893Z,9.89
2023-11-17T10:51:50.745Z,10.00
2023-11-17T10:54:19.549Z,10.07
2023-11-17T10:56:51.408Z,10.17
2023-11-17T10:59:22.136Z,10.20
2023-11-17T11:01:52.548Z,10.31
2023-11-17T11:04:27.426Z,10.23
2023-11-17T11:07:02.586Z,10.16
2023-11-17T11:09:36.302Z,10.24
2023-11-17T11:12:24.612Z,10.34
2023-11-17T11:14:53.647Z,10.41
2023-11-17T11:17:20.865Z,10.57
2023-11-17T11:19:58.471Z,10.66
2023-11-17T11:22:37.331Z,10.82
2023-11-17T11:25:06.828Z,10.70
2023-11-17T11:27:36.975Z,10.73
2023-11-17T11:30:07.303Z,10.66
2023-11-17T11:32:36.254Z,10.68
2023-11-17T11:35:04.517Z,10.63
2023-11-17T11:37:35.046Z,10.79
2023-11-17T11:40:02.537Z,10.77
2023-11-17T11:42:30.497Z,10.86
2023-11-17T11:44:58.875Z,10.71
2023-11-17T11:47:26.165Z,10.74
2023-11-17T11:49:55.183Z,10.59
2023-11-17T11:52:32.347Z,10.59
2023-11-17T11:55:00.356Z,10.63
2023-11-17T11:57:30.606Z,10.56
2023-11-17T12:00:07.313Z,10.52
2023-11-17T12:02:35.154Z,10.62
2023-11-17T12:05:06.979Z,10.59
2023-11-17T12:07:36.731Z,10.53
2023-11-17T12:10:06.449Z,10.39
2023-11-17T12:12:35.087Z,10.42
2023-11-17T12:15:05.084Z,10.33
2023-11-17T12:17:32.725Z,10.43
2023-11-17T12:20:32.760Z,10.60
2023-11-17T12:23:02.563Z,10.69
2023-11-17T12:25:31.453Z,10.56
2023-11-17T12:28:01.303Z,10.57
2023-11-17T12:30:29.056Z,10.63
2023-11-17T12:32:57.635Z,10.75
2023-11-17T12:35:28.662Z,10.67
2023-11-17T12:37:57.272Z,10.66
2023-11-17T12:40:24.804Z,10.75
2023-11-17T12:42:52.195Z,10.88
2023-11-17T12:45:21.214Z,10.82
2023-11-17T12:47:48.924Z,10.87
2023-11-17T12:50:16.102Z,10.60
2023-11-17T12:55:26.445Z,10.82
2023-11-17T12:57:53.561Z,10.65
2023-11-17T13:00:29.689Z,10.78
2023-11-17T13:02:57.242Z,10.93
2023-11-17T13:05:26.946Z,11.04
2023-11-17T13:07:55.846Z,11.08
2023-11-17T13:10:23.161Z,11.08
2023-11-17T13:12:50.563Z,10.83
2023-11-17T13:15:17.749Z,10.96
2023-11-17T13:17:45.460Z,11.06
2023-11-17T13:20:24.302Z,11.20
2023-11-17T13:22:52.388Z,11.15
2023-11-17T13:25:20.498Z,11.16
2023-11-17T13:27:47.746Z,11.09
2023-11-17T13:30:15.516Z,11.06
2023-11-17T13:33:02.406Z,11.26
2023-11-17T13:35:31.640Z,11.20
2023-11-17T13:38:00.898Z,11.32
2023-11-17T13:40:31.041Z,11.35
2023-11-17T13:42:58.723Z,11.30
2023-11-17T13:45:26.417Z,11.42
2023-11-17T13:48:01.228Z,11.51
2023-11-17T13:50:29.007Z,11.44
2023-11-17T13:52:56.764Z,11.44
2023-11-17T13:55:28.899Z,11.30
2023-11-17T13:57:57.321Z,11.27
2023-11-17T14:00:27.486Z,11.37
2023-11-17T14:02:56.318Z,11.19
2023-11-17T14:05:23.800Z,10.99
2023-11-17T14:07:51.063Z,11.02
2023-11-17T14:10:19.106Z,11.00
2023-11-17T14:12:47.342Z,11.00
2023-11-17T14:15:15.196Z,10.84
2023-11-17T14:17:44.771Z,10.76
2023-11-17T14:20:16.498Z,10.68
2023-11-17T14:22:44.485Z,10.66
2023-11-17T14:25:13.055Z,10.69
2023-11-17T14:27:40.264Z,10.91
2023-11-17T14:30:09.028Z,11.04
2023-11-17T14:32:36.579Z,11.18
2023-11-17T14:35:04.481Z,11.27
2023-11-17T14:37:31.766Z,11.44
2023-11-17T14:40:00.215Z,11.53
2023-11-17T14:42:28.033Z,11.49
2023-11-17T14:44:55.136Z,11.57
2023-11-17T14:47:24.316Z,11.67
2023-11-17T14:49:52.070Z,11.61
2023-11-17T14:52:19.362Z,11.52
2023-11-17T14:54:47.298Z,11.36
2023-11-17T14:57:15.784Z,11.22
2023-11-17T14:59:45.730Z,11.09
2023-11-17T15:02:14.686Z,11.01
2023-11-17T15:04:41.879Z,10.89
2023-11-17T15:07:09.885Z,10.80
2023-11-17T15:09:39.602Z,10.73
2023-11-17T15:12:08.134Z,10.67
2023-11-17T15:14:35.865Z,10.66
2023-11-17T15:17:03.075Z,10.68
2023-11-17T15:19:30.439Z,10.66
2023-11-17T15:21:59.466Z,10.57
2023-11-17T15:24:29.104Z,10.55
2023-11-17T15:26:56.924Z,10.47
2023-11-17T15:29:31.123Z,10.37
2023-11-17T15:32:04.952Z,10.25
2023-11-17T15:34:32.338Z,10.10
2023-11-17T15:36:59.946Z,10.03
2023-11-17T15:39:31.814Z,10.00
2023-11-17T15:41:59.389Z,9.93
2023-11-17T15:44:26.545Z,9.85
2023-11-17T15:46:54.224Z,9.80
2023-11-17T15:49:22.159Z,9.73
2023-11-17T15:51:51.432Z,9.63
2023-11-17T15:54:18.553Z,9.62
2023-11-17T15:56:47.514Z,9.61
2023-11-17T15:59:15.372Z,9.56
2023-11-17T16:01:45.190Z,9.48
2023-11-17T16:04:13.989Z,9.48
2023-11-17T16:06:42.939Z,9.41
2023-11-17T16:09:11.770Z,9.36
2023-11-17T16:11:40.843Z,9.36
2023-11-17T16:14:11.030Z,9.39
2023-11-17T16:16:38.306Z,9.39
2023-11-17T16:19:05.470Z,9.33
2023-11-17T16:21:33.726Z,9.27
2023-11-17T16:24:00.837Z,9.18
2023-11-17T16:26:29.395Z,9.16
2023-11-17T16:29:00.582Z,9.16
2023-11-17T16:31:28.095Z,9.13
2023-11-17T16:33:55.289Z,9.06
2023-11-17T16:36:25.120Z,9.01
2023-11-17T16:38:52.722Z,8.96
2023-11-17T16:41:21.548Z,8.82
2023-11-17T16:43:51.220Z,8.84
2023-11-17T16:46:21.157Z,8.79
2023-11-17T16:48:48.567Z,8.71
2023-11-17T16:51:16.265Z,8.70
2023-11-17T16:53:44.029Z,8.62
2023-11-17T16:56:11.128Z,8.58
2023-11-17T16:58:41.684Z,8.49
2023-11-17T17:01:10.444Z,8.44
2023-11-17T17:03:38.100Z,8.39
2023-11-17T17:06:05.721Z,8.35
2023-11-17T17:08:36.044Z,8.32
2023-11-17T17:11:05.721Z,8.28
2023-11-17T17:13:35.076Z,8.22
2023-11-17T17:16:02.377Z,8.16
2023-11-17T17:18:30.743Z,8.08
2023-11-17T17:20:58.632Z,8.06
2023-11-17T17:23:26.587Z,8.03
2023-11-17T17:25:56.475Z,8.06
2023-11-17T17:28:23.758Z,8.05
2023-11-17T17:30:50.923Z,8.05
2023-11-17T17:33:18.259Z,7.99
2023-11-17T17:35:46.440Z,7.95
2023-11-17T17:38:15.511Z,7.90
2023-11-17T17:40:44.809Z,7.88
2023-11-17T17:43:14.087Z,7.88
2023-11-17T17:45:45.044Z,7.90
2023-11-17T17:48:13.788Z,7.87
2023-11-17T17:50:41.049Z,7.79
2023-11-17T17:53:09.881Z,7.70
2023-11-17T17:55:37.875Z,7.69
2023-11-17T17:58:07.744Z,7.66
2023-11-17T18:00:35.070Z,7.52
2023-11-17T18:03:06.017Z,7.54
2023-11-17T18:05:33.452Z,7.40
2023-11-17T18:08:01.610Z,7.57
2023-11-17T18:10:29.442Z,7.56
2023-11-17T18:12:56.817Z,7.54
2023-11-17T18:15:24.515Z,7.50
2023-11-17T18:17:53.263Z,7.46
2023-11-17T18:20:24.279Z,7.44
2023-11-17T18:22:53.140Z,7.55
2023-11-17T18:25:22.038Z,7.54
2023-11-17T18:27:50.828Z,7.47
2023-11-17T18:30:21.464Z,7.44
2023-11-17T18:32:48.953Z,7.48
2023-11-17T18:35:16.961Z,7.45
2023-11-17T18:37:54.518Z,7.43
2023-11-17T18:40:25.593Z,7.38
2023-11-17T18:42:53.412Z,7.39
2023-11-17T18:45:21.510Z,7.33
2023-11-17T18:47:49.294Z,7.36
2023-11-17T18:50:17.851Z,7.36
2023-11-17T18:52:45.757Z,7.41
2023-11-17T18:55:15.105Z,7.41
2023-11-17T18:57:44.509Z,7.39
2023-11-17T19:00:19.100Z,7.35
2023-11-17T19:02:53.722Z,7.32
2023-11-17T19:05:21.842Z,7.26
2023-11-17T19:07:50.590Z,7.13
2023-11-17T19:10:21.375Z,7.32
2023-11-17T19:12:50.807Z,7.34
2023-11-17T19:15:22.997Z,7.36
2023-11-17T19:17:50.603Z,7.40
2023-11-17T19:20:17.850Z,7.44
2023-11-17T19:22:46.788Z,7.43
2023-11-17T19:25:18.007Z,7.42
2023-11-17T19:27:45.421Z,7.38
2023-11-17T19:30:17.774Z,7.34
2023-11-17T19:32:47.943Z,7.32
2023-11-17T19:35:16.835Z,7.27
2023-11-17T19:37:45.757Z,7.32
2023-11-17T19:40:16.700Z,7.16
2023-11-17T19:42:45.658Z,7.11
2023-11-17T19:45:18.410Z,7.07
2023-11-17T19:47:47.116Z,7.02
2023-11-17T19:50:18.429Z,7.00
2023-11-17T19:52:50.876Z,7.01
2023-11-17T19:55:25.135Z,6.98
2023-11-17T19:57:53.940Z,6.92
2023-11-17T20:00:25.424Z,7.01
2023-11-17T20:02:54.453Z,7.04
2023-11-17T20:05:25.109Z,7.06
2023-11-17T20:07:53.484Z,6.97
2023-11-17T20:10:21.412Z,7.14
2023-11-17T20:12:48.693Z,7.10
2023-11-17T20:15:16.258Z,7.14
2023-11-17T20:17:55.024Z,7.14
2023-11-17T20:20:28.468Z,7.07
2023-11-17T20:22:59.779Z,7.07
2023-11-17T20:25:28.073Z,7.12
2023-11-17T20:27:56.774Z,7.14
2023-11-17T20:30:25.916Z,7.19
2023-11-17T20:32:58.931Z,7.17
2023-11-17T20:35:26.369Z,7.22
2023-11-17T20:37:54.274Z,7.22
2023-11-17T20:40:22.821Z,7.31
2023-11-17T20:42:52.023Z,7.33
2023-11-17T20:45:24.400Z,7.29
2023-11-17T20:47:52.642Z,7.39
2023-11-17T20:50:23.166Z,7.38
2023-11-17T20:52:53.233Z,7.40
2023-11-17T20:55:21.958Z,7.39
2023-11-17T20:57:56.591Z,7.47
2023-11-17T21:00:24.657Z,7.42
2023-11-17T21:02:53.831Z,7.47
2023-11-17T21:05:23.278Z,7.46
2023-11-17T21:07:52.553Z,7.40
2023-11-17T21:10:23.095Z,7.37
2023-11-17T21:12:52.268Z,7.37
2023-11-17T21:15:20.323Z,7.27
2023-11-17T21:17:48.007Z,7.33
2023-11-17T21:20:15.904Z,7.36
2023-11-17T21:22:43.761Z,7.32
2023-11-17T21:25:13.691Z,7.39
2023-11-17T21:27:45.050Z,7.37
2023-11-17T21:30:16.712Z,7.43
2023-11-17T21:32:45.943Z,7.38
2023-11-17T21:35:15.077Z,7.35
2023-11-17T21:37:43.854Z,7.37
2023-11-17T21:40:14.834Z,7.42
2023-11-17T21:42:46.261Z,7.43
2023-11-17T21:45:16.000Z,7.40
2023-11-17T21:47:56.360Z,7.46
2023-11-17T21:50:25.575Z,7.52
2023-11-17T21:52:55.361Z,7.51
2023-11-17T21:55:23.059Z,7.53
2023-11-17T21:57:50.235Z,7.60
2023-11-17T22:00:19.049Z,7.62
2023-11-17T22:02:47.961Z,7.64
2023-11-17T22:05:17.331Z,7.59
2023-11-17T22:07:46.409Z,7.56
2023-11-17T22:10:14.786Z,7.59
2023-11-17T22:12:43.902Z,7.65
2023-11-17T22:15:14.006Z,7.58
2023-11-17T22:17:45.028Z,7.54
2023-11-17T22:20:15.015Z,7.51
2023-11-17T22:22:45.452Z,7.53
2023-11-17T22:25:14.762Z,7.52
2023-11-17T22:27:44.749Z,7.49
2023-11-17T22:30:24.323Z,7.37
2023-11-17T22:32:54.055Z,7.40
2023-11-17T22:35:21.370Z,7.36
2023-11-17T22:37:52.048Z,7.37
2023-11-17T22:40:23.388Z,7.39
2023-11-17T22:42:52.640Z,7.33
2023-11-17T22:45:20.120Z,7.38
2023-11-17T22:47:48.326Z,7.36
2023-11-17T22:50:18.336Z,7.32
2023-11-17T22:52:46.448Z,7.15
2023-11-17T22:55:15.008Z,7.16
2023-11-17T22:57:42.143Z,7.14
2023-11-17T23:00:17.016Z,7.14
2023-11-17T23:02:45.379Z,7.19
2023-11-17T23:05:13.988Z,7.20
2023-11-17T23:07:41.245Z,7.20
2023-11-17T23:10:14.077Z,7.17
2023-11-17T23:12:41.182Z,7.22
2023-11-17T23:15:09.072Z,7.24
2023-11-17T23:17:38.848Z,7.29
2023-11-17T23:20:08.904Z,7.31
2023-11-17T23:22:36.280Z,7.31
2023-11-17T23:25:06.892Z,7.32
2023-11-17T23:27:34.156Z,7.31
2023-11-17T23:30:01.914Z,7.35
2023-11-17T23:32:29.281Z,7.38
2023-11-17T23:34:56.552Z,7.35
2023-11-17T23:37:23.705Z,7.37
2023-11-17T23:39:50.805Z,7.38
2023-11-17T23:42:19.066Z,7.40
2023-11-17T23:44:46.197Z,7.35
2023-11-17T23:47:14.752Z,7.33
2023-11-17T23:49:42.315Z,7.36
2023-11-17T23:52:09.448Z,7.35
2023-11-17T23:54:36.625Z,7.37
2023-11-17T23:57:04.037Z,7.33
2023-11-17T23:59:31.505Z,7.36
